createdAt,value
2023-02-22T00:02:32.145Z,5.24
2023-02-22T00:05:07.002Z,5.22
2023-02-22T00:07:37.019Z,5.15
2023-02-22T00:10:11.177Z,5.04
2023-02-22T00:12:47.492Z,5.12
2023-02-22T00:15:25.622Z,5.13
2023-02-22T00:18:00.021Z,5.12
2023-02-22T00:20:29.868Z,5.16
2023-02-22T00:23:01.641Z,5.09
2023-02-22T00:25:35.782Z,5.16
2023-02-22T00:28:05.858Z,5.04
2023-02-22T00:30:45.287Z,5.14
2023-02-22T00:33:15.302Z,5.13
2023-02-22T00:35:51.409Z,5.17
2023-02-22T00:38:21.310Z,5.17
2023-02-22T00:40:52.390Z,5.23
2023-02-22T00:43:27.720Z,5.22
2023-02-22T00:46:03.876Z,5.17
2023-02-22T00:48:40.634Z,5.21
2023-02-22T00:51:17.569Z,5.20
2023-02-22T00:53:52.380Z,5.09
2023-02-22T00:56:26.149Z,5.07
2023-02-22T00:58:54.531Z,5.01
2023-02-22T01:01:24.726Z,4.99
2023-02-22T01:03:58.230Z,4.96
2023-02-22T01:06:29.508Z,4.97
2023-02-22T01:09:07.862Z,4.98
2023-02-22T01:11:43.630Z,4.97
2023-02-22T01:14:17.951Z,4.90
2023-02-22T01:16:53.539Z,4.89
2023-02-22T01:19:35.050Z,4.87
2023-02-22T01:22:10.481Z,4.83
2023-02-22T01:24:45.846Z,4.81
2023-02-22T01:27:18.702Z,4.72
2023-02-22T01:29:56.084Z,4.71
2023-02-22T01:32:36.422Z,4.72
2023-02-22T01:35:10.225Z,4.62
2023-02-22T01:37:45.741Z,4.58
2023-02-22T01:40:24.403Z,4.57
2023-02-22T01:42:53.798Z,4.57
2023-02-22T01:45:41.215Z,4.47
2023-02-22T01:48:14.125Z,4.49
2023-02-22T01:50:49.886Z,4.51
2023-02-22T01:53:20.431Z,4.54
2023-02-22T01:55:49.277Z,4.50
2023-02-22T01:58:18.499Z,4.45
2023-02-22T02:00:46.611Z,4.47
2023-02-22T02:03:18.521Z,4.48
2023-02-22T02:05:47.420Z,4.43
2023-02-22T02:08:20.429Z,4.48
2023-02-22T02:10:49.937Z,4.48
2023-02-22T02:13:18.434Z,4.45
2023-02-22T02:15:49.957Z,4.50
2023-02-22T02:18:19.665Z,4.57
2023-02-22T02:20:55.445Z,4.59
2023-02-22T02:23:32.904Z,4.59
2023-02-22T02:26:26.161Z,4.64
2023-02-22T02:29:02.643Z,4.67
2023-02-22T02:31:49.402Z,4.61
2023-02-22T02:34:24.339Z,4.66
2023-02-22T02:36:58.165Z,4.65
2023-02-22T02:39:28.849Z,4.69
2023-02-22T02:41:59.066Z,4.71
2023-02-22T02:44:30.589Z,4.73
2023-02-22T02:47:02.628Z,4.76
2023-02-22T02:49:35.357Z,4.75
2023-02-22T02:52:04.456Z,4.67
2023-02-22T02:54:33.830Z,4.73
2023-02-22T02:57:04.086Z,4.60
2023-02-22T02:59:33.613Z,4.64
2023-02-22T03:02:11.691Z,4.60
2023-02-22T03:04:49.877Z,4.60
2023-02-22T03:07:25.414Z,4.66
2023-02-22T03:10:01.029Z,4.56
2023-02-22T03:12:38.331Z,4.62
2023-02-22T03:15:11.249Z,4.60
2023-02-22T03:17:45.451Z,4.61
2023-02-22T03:20:19.648Z,4.64
2023-02-22T03:22:53.592Z,4.64
2023-02-22T03:25:23.909Z,4.60
2023-02-22T03:28:02.479Z,4.46
2023-02-22T03:30:34.376Z,4.46
2023-02-22T03:33:09.163Z,4.47
2023-02-22T03:35:42.533Z,4.41
2023-02-22T03:38:12.869Z,4.28
2023-02-22T03:40:44.588Z,4.35
2023-02-22T03:43:16.020Z,4.30
2023-02-22T03:45:49.542Z,4.26
2023-02-22T03:48:24.268Z,4.25
2023-02-22T03:50:54.765Z,4.16
2023-02-22T03:53:23.764Z,4.09
2023-02-22T03:55:54.168Z,4.13
2023-02-22T03:58:23.822Z,4.14
2023-02-22T04:00:54.196Z,4.09
2023-02-22T04:03:23.141Z,4.13
2023-02-22T04:05:53.860Z,4.12
2023-02-22T04:08:23.322Z,4.03
2023-02-22T04:10:51.937Z,3.97
2023-02-22T04:13:23.045Z,4.04
2023-02-22T04:15:53.440Z,4.00
2023-02-22T04:18:22.007Z,3.98
2023-02-22T04:20:51.908Z,3.87
2023-02-22T04:23:40.383Z,3.84
2023-02-22T04:26:09.687Z,3.83
2023-02-22T04:28:37.778Z,3.70
2023-02-22T04:31:16.363Z,3.67
2023-02-22T04:33:45.400Z,3.70
2023-02-22T04:36:16.950Z,3.66
2023-02-22T04:38:48.103Z,3.56
2023-02-22T04:41:18.558Z,3.51
2023-02-22T04:43:47.154Z,3.42
2023-02-22T04:46:22.214Z,3.33
2023-02-22T04:48:50.281Z,3.29
2023-02-22T04:51:22.665Z,3.24
2023-02-22T04:54:02.514Z,3.25
2023-02-22T04:56:32.991Z,3.25
2023-02-22T04:59:01.316Z,3.24
2023-02-22T05:01:32.201Z,3.26
2023-02-22T05:04:00.585Z,3.25
2023-02-22T05:06:29.096Z,3.25
2023-02-22T05:08:57.541Z,3.29
2023-02-22T05:11:27.017Z,3.33
2023-02-22T05:13:55.178Z,3.33
2023-02-22T05:16:23.645Z,3.36
2023-02-22T05:18:52.107Z,3.34
2023-02-22T05:21:20.122Z,3.35
2023-02-22T05:23:48.361Z,3.34
2023-02-22T05:26:16.695Z,3.30
2023-02-22T05:28:46.692Z,3.28
2023-02-22T05:31:15.352Z,3.19
2023-02-22T05:33:43.669Z,3.21
2023-02-22T05:36:11.673Z,3.15
2023-02-22T05:38:43.545Z,3.07
2023-02-22T05:41:12.112Z,3.07
2023-02-22T05:43:40.577Z,3.04
2023-02-22T05:46:10.473Z,2.93
2023-02-22T05:48:38.738Z,2.90
2023-02-22T05:51:07.058Z,2.83
2023-02-22T05:53:35.559Z,2.75
2023-02-22T05:56:03.732Z,2.66
2023-02-22T05:58:32.374Z,2.59
2023-02-22T06:01:02.946Z,2.48
2023-02-22T06:03:32.887Z,2.39
2023-02-22T06:06:01.175Z,2.34
2023-02-22T06:08:29.451Z,2.28
2023-02-22T06:10:57.678Z,2.21
2023-02-22T06:13:26.108Z,2.12
2023-02-22T06:15:54.339Z,2.08
2023-02-22T06:18:22.601Z,1.97
2023-02-22T06:20:52.216Z,1.89
2023-02-22T06:23:20.262Z,1.88
2023-02-22T06:25:48.332Z,1.82
2023-02-22T06:28:16.896Z,1.80
2023-02-22T06:30:45.360Z,1.77
2023-02-22T06:33:13.690Z,1.79
2023-02-22T06:35:42.069Z,1.78
2023-02-22T06:38:11.468Z,1.82
2023-02-22T06:40:39.694Z,1.78
2023-02-22T06:43:07.993Z,1.86
2023-02-22T06:45:36.134Z,1.84
2023-02-22T06:48:04.650Z,1.83
2023-02-22T06:50:35.522Z,1.82
2023-02-22T06:53:04.020Z,1.79
2023-02-22T06:55:34.474Z,1.77
2023-02-22T06:58:03.317Z,1.78
2023-02-22T07:00:32.436Z,1.70
2023-02-22T07:03:00.908Z,1.68
2023-02-22T07:05:29.668Z,1.61
2023-02-22T07:08:03.414Z,1.61
2023-02-22T07:10:33.497Z,1.57
2023-02-22T07:13:02.983Z,1.53
2023-02-22T07:15:32.769Z,1.50
2023-02-22T07:18:01.474Z,1.50
2023-02-22T07:20:30.984Z,1.51
2023-02-22T07:22:59.339Z,1.50
2023-02-22T07:25:28.003Z,1.49
2023-02-22T07:27:56.201Z,1.48
2023-02-22T07:30:28.216Z,1.46
2023-02-22T07:32:56.708Z,1.45
2023-02-22T07:35:25.886Z,1.44
2023-02-22T07:37:55.962Z,1.44
2023-02-22T07:40:25.221Z,1.49
2023-02-22T07:42:57.592Z,1.46
2023-02-22T07:45:28.567Z,1.47
2023-02-22T07:47:56.775Z,1.46
2023-02-22T07:50:26.201Z,1.47
2023-02-22T07:52:56.931Z,1.48
2023-02-22T07:55:25.955Z,1.50
2023-02-22T07:57:55.209Z,1.52
2023-02-22T08:00:24.646Z,1.59
2023-02-22T08:02:54.350Z,1.59
2023-02-22T08:05:23.358Z,1.63
2023-02-22T08:07:52.133Z,1.70
2023-02-22T08:10:21.157Z,1.70
2023-02-22T08:12:49.530Z,1.74
2023-02-22T08:15:19.726Z,1.78
2023-02-22T08:17:47.913Z,1.78
2023-02-22T08:20:18.001Z,1.80
2023-02-22T08:22:46.377Z,1.80
2023-02-22T08:25:15.623Z,1.79
2023-02-22T08:27:44.647Z,1.79
2023-02-22T08:30:15.530Z,1.81
2023-02-22T08:32:43.829Z,1.75
2023-02-22T08:35:13.799Z,1.75
2023-02-22T08:37:45.454Z,1.83
2023-02-22T08:40:14.945Z,1.80
2023-02-22T08:42:43.215Z,1.82
2023-02-22T08:45:12.148Z,1.88
2023-02-22T08:47:40.411Z,1.93
2023-02-22T08:50:09.500Z,1.94
2023-02-22T08:52:37.678Z,1.99
2023-02-22T08:55:08.185Z,2.01
2023-02-22T08:57:36.318Z,2.06
2023-02-22T09:00:05.042Z,2.08
2023-02-22T09:02:33.640Z,2.13
2023-02-22T09:05:01.824Z,2.32
2023-02-22T09:07:30.221Z,2.60
2023-02-22T09:09:58.323Z,2.90
2023-02-22T09:12:27.854Z,3.32
2023-02-22T09:14:56.020Z,3.63
2023-02-22T09:17:24.056Z,3.95
2023-02-22T09:19:52.206Z,4.22
2023-02-22T09:22:20.249Z,4.45
2023-02-22T09:24:48.384Z,4.71
2023-02-22T09:27:20.192Z,4.78
2023-02-22T09:29:50.670Z,5.07
2023-02-22T09:32:19.047Z,5.17
2023-02-22T09:34:48.039Z,5.33
2023-02-22T09:37:16.039Z,5.52
2023-02-22T09:39:44.978Z,5.64
2023-02-22T09:42:17.025Z,6.15
2023-02-22T09:44:49.576Z,6.66
2023-02-22T09:47:20.601Z,7.32
2023-02-22T09:49:57.554Z,7.63
2023-02-22T09:52:28.689Z,8.28
2023-02-22T09:54:59.308Z,8.92
2023-02-22T09:57:30.358Z,9.33
2023-02-22T10:00:02.060Z,9.85
2023-02-22T10:02:45.588Z,10.37
2023-02-22T10:05:17.915Z,10.57
2023-02-22T10:07:48.442Z,10.98
2023-02-22T10:10:18.374Z,11.42
2023-02-22T10:12:54.148Z,11.46
2023-02-22T10:15:37.320Z,11.58
2023-02-22T10:18:21.076Z,11.29
2023-02-22T10:20:53.012Z,11.38
2023-02-22T10:23:25.816Z,11.93
2023-02-22T10:25:57.986Z,11.81
2023-02-22T10:28:31.034Z,11.61
2023-02-22T10:31:04.451Z,11.64
2023-02-22T10:33:35.003Z,11.51
2023-02-22T10:36:05.016Z,11.41
2023-02-22T10:38:33.704Z,11.55
2023-02-22T10:41:03.576Z,11.07
2023-02-22T10:43:33.450Z,11.00
2023-02-22T10:46:03.480Z,10.47
2023-02-22T10:48:33.829Z,10.78
2023-02-22T10:51:03.547Z,10.16
2023-02-22T10:53:36.481Z,9.41
2023-02-22T10:56:14.648Z,9.94
2023-02-22T10:58:43.833Z,9.94
2023-02-22T11:01:22.732Z,10.31
2023-02-22T11:04:09.640Z,10.61
2023-02-22T11:06:38.115Z,10.35
2023-02-22T11:09:11.303Z,10.87
2023-02-22T11:11:41.308Z,11.21
2023-02-22T11:14:10.955Z,11.48
2023-02-22T11:16:40.296Z,11.30
2023-02-22T11:19:24.209Z,11.90
2023-02-22T11:21:53.254Z,11.76
2023-02-22T11:24:24.889Z,12.50
2023-02-22T11:26:54.775Z,12.54
2023-02-22T11:29:26.574Z,12.30
2023-02-22T11:31:56.177Z,12.56
2023-02-22T11:34:33.544Z,12.56
2023-02-22T11:37:17.404Z,12.85
2023-02-22T11:39:47.317Z,13.26
2023-02-22T11:42:22.861Z,13.36
2023-02-22T11:45:04.296Z,13.22
2023-02-22T11:47:32.210Z,13.39
2023-02-22T11:50:02.279Z,14.03
2023-02-22T11:52:35.333Z,13.77
2023-02-22T11:55:32.571Z,13.87
2023-02-22T11:58:22.112Z,14.13
2023-02-22T12:00:55.225Z,13.72
2023-02-22T12:03:29.450Z,13.43
2023-02-22T12:06:08.646Z,13.25
2023-02-22T12:08:41.242Z,12.55
2023-02-22T12:11:13.627Z,12.82
2023-02-22T12:13:50.534Z,13.15
2023-02-22T12:16:22.655Z,12.92
2023-02-22T12:19:03.041Z,12.83
2023-02-22T12:21:32.858Z,12.42
2023-02-22T12:24:03.852Z,12.01
2023-02-22T12:26:36.585Z,12.25
2023-02-22T12:29:07.901Z,12.60
2023-02-22T12:31:39.733Z,12.48
2023-02-22T12:34:11.936Z,12.96
2023-02-22T12:36:42.284Z,13.07
2023-02-22T12:39:26.541Z,12.83
2023-02-22T12:41:57.566Z,12.37
2023-02-22T12:44:49.832Z,12.31
2023-02-22T12:47:21.203Z,11.78
2023-02-22T12:49:52.906Z,11.72
2023-02-22T12:52:36.291Z,11.79
2023-02-22T12:55:09.410Z,11.43
2023-02-22T12:57:44.524Z,11.20
2023-02-22T13:00:20.287Z,11.06
2023-02-22T13:02:51.782Z,10.85
2023-02-22T13:05:20.925Z,11.16
2023-02-22T13:07:57.510Z,11.29
2023-02-22T13:10:33.058Z,11.31
2023-02-22T13:13:07.119Z,11.51
2023-02-22T13:15:42.849Z,11.24
2023-02-22T13:18:16.108Z,10.83
2023-02-22T13:20:47.494Z,10.32
2023-02-22T13:23:19.439Z,9.96
2023-02-22T13:25:50.428Z,10.03
2023-02-22T13:28:29.526Z,10.17
2023-02-22T13:31:04.829Z,10.38
2023-02-22T13:33:41.033Z,10.63
2023-02-22T13:36:17.680Z,10.41
2023-02-22T13:39:06.903Z,10.35
2023-02-22T13:41:55.161Z,10.25
2023-02-22T13:44:34.620Z,10.08
2023-02-22T13:47:17.871Z,10.21
2023-02-22T13:49:56.097Z,10.08
2023-02-22T13:52:26.364Z,10.11
2023-02-22T13:54:56.174Z,9.73
2023-02-22T13:57:25.704Z,9.76
2023-02-22T14:00:24.006Z,9.78
2023-02-22T14:03:01.423Z,9.88
2023-02-22T14:05:53.819Z,9.89
2023-02-22T14:08:41.956Z,9.80
2023-02-22T14:11:37.513Z,9.80
2023-02-22T14:14:14.702Z,9.72
2023-02-22T14:16:43.088Z,9.72
2023-02-22T14:19:23.737Z,9.61
2023-02-22T14:21:57.035Z,9.57
2023-02-22T14:24:25.207Z,9.59
2023-02-22T14:26:58.117Z,9.65
2023-02-22T14:29:26.640Z,9.69
2023-02-22T14:31:59.719Z,9.33
2023-02-22T14:34:42.566Z,9.08
2023-02-22T14:37:14.072Z,8.93
2023-02-22T14:39:43.984Z,8.69
2023-02-22T14:42:14.977Z,8.60
2023-02-22T14:44:48.836Z,8.48
2023-02-22T14:47:21.119Z,8.54
2023-02-22T14:49:52.729Z,8.63
2023-02-22T14:52:24.312Z,8.67
2023-02-22T14:55:04.800Z,8.54
2023-02-22T14:57:39.078Z,8.41
2023-02-22T15:00:19.883Z,8.62
2023-02-22T15:02:49.015Z,8.75
2023-02-22T15:05:21.012Z,8.85
2023-02-22T15:07:53.897Z,8.86
2023-02-22T15:10:24.182Z,8.86
2023-02-22T15:12:54.133Z,8.81
2023-02-22T15:15:23.095Z,8.63
2023-02-22T15:17:54.741Z,8.47
2023-02-22T15:20:26.293Z,8.51
2023-02-22T15:22:59.423Z,8.55
2023-02-22T15:25:30.778Z,8.50
2023-02-22T15:28:03.062Z,8.37
2023-02-22T15:30:33.055Z,8.40
2023-02-22T15:33:12.624Z,8.31
2023-02-22T15:35:42.476Z,8.27
2023-02-22T15:38:20.210Z,8.13
2023-02-22T15:40:50.885Z,8.16
2023-02-22T15:43:19.922Z,8.06
2023-02-22T15:45:51.161Z,7.96
2023-02-22T15:48:19.635Z,7.90
2023-02-22T15:51:04.462Z,7.87
2023-02-22T15:53:37.463Z,7.87
2023-02-22T15:56:08.409Z,7.86
2023-02-22T15:58:37.211Z,7.92
2023-02-22T16:01:07.427Z,7.90
2023-02-22T16:03:38.795Z,8.01
2023-02-22T16:06:12.247Z,8.03
2023-02-22T16:08:54.386Z,8.11
2023-02-22T16:11:30.090Z,8.03
2023-02-22T16:14:00.515Z,7.94
2023-02-22T16:16:33.002Z,7.93
2023-02-22T16:19:26.224Z,7.83
2023-02-22T16:21:58.384Z,7.77
2023-02-22T16:24:27.898Z,7.72
2023-02-22T16:27:15.380Z,7.52
2023-02-22T16:29:44.044Z,7.09
2023-02-22T16:32:15.516Z,6.97
2023-02-22T16:34:44.021Z,6.90
2023-02-22T16:37:24.575Z,6.73
2023-02-22T16:39:53.320Z,6.72
2023-02-22T16:42:24.365Z,6.53
2023-02-22T16:44:53.136Z,6.46
2023-02-22T16:47:21.820Z,6.47
2023-02-22T16:49:52.953Z,6.46
2023-02-22T16:52:22.753Z,6.33
2023-02-22T16:54:53.004Z,6.28
2023-02-22T16:57:22.353Z,6.15
2023-02-22T16:59:52.898Z,6.22
2023-02-22T17:02:22.789Z,6.13
2023-02-22T17:04:51.051Z,6.09
2023-02-22T17:07:21.035Z,6.03
2023-02-22T17:09:51.473Z,5.98
2023-02-22T17:12:19.916Z,5.87
2023-02-22T17:14:48.346Z,5.91
2023-02-22T17:17:16.911Z,5.93
2023-02-22T17:19:45.314Z,5.83
2023-02-22T17:22:17.998Z,5.91
2023-02-22T17:24:46.797Z,5.85
2023-02-22T17:27:16.257Z,5.77
2023-02-22T17:29:48.581Z,5.58
2023-02-22T17:32:16.981Z,5.50
2023-02-22T17:34:45.614Z,5.45
2023-02-22T17:37:13.850Z,5.38
2023-02-22T17:39:42.485Z,5.29
2023-02-22T17:42:10.560Z,5.17
2023-02-22T17:44:41.098Z,5.16
2023-02-22T17:47:09.961Z,4.99
2023-02-22T17:49:39.037Z,4.86
2023-02-22T17:52:07.719Z,4.91
2023-02-22T17:54:36.214Z,4.78
2023-02-22T17:57:04.944Z,4.66
2023-02-22T17:59:34.950Z,4.54
2023-02-22T18:02:05.414Z,4.41
2023-02-22T18:04:34.242Z,4.41
2023-02-22T18:07:04.466Z,4.29
2023-02-22T18:09:34.238Z,4.26
2023-02-22T18:12:02.637Z,4.15
2023-02-22T18:14:31.095Z,4.12
2023-02-22T18:17:01.336Z,4.05
2023-02-22T18:19:31.434Z,4.04
2023-02-22T18:22:01.920Z,4.01
2023-02-22T18:24:34.366Z,3.92
2023-02-22T18:27:05.999Z,3.94
2023-02-22T18:29:34.925Z,3.88
2023-02-22T18:32:03.715Z,3.88
2023-02-22T18:34:33.976Z,3.85
2023-02-22T18:37:02.590Z,3.83
2023-02-22T18:39:33.982Z,3.83
2023-02-22T18:42:02.394Z,3.80
2023-02-22T18:44:32.277Z,3.74
2023-02-22T18:47:00.496Z,3.68
2023-02-22T18:49:28.608Z,3.62
2023-02-22T18:51:58.408Z,3.56
2023-02-22T18:54:27.401Z,3.56
2023-02-22T18:56:55.476Z,3.54
2023-02-22T18:59:23.795Z,3.50
2023-02-22T19:01:52.165Z,3.48
2023-02-22T19:04:21.751Z,3.45
2023-02-22T19:06:50.148Z,3.45
2023-02-22T19:09:19.926Z,3.43
2023-02-22T19:11:48.481Z,3.42
2023-02-22T19:14:17.587Z,3.38
2023-02-22T19:16:46.596Z,3.37
2023-02-22T19:19:15.007Z,3.34
2023-02-22T19:21:43.177Z,3.31
2023-02-22T19:24:11.528Z,3.27
2023-02-22T19:26:49.528Z,3.21
2023-02-22T19:29:18.845Z,3.25
2023-02-22T19:31:51.796Z,3.22
2023-02-22T19:34:24.206Z,3.20
2023-02-22T19:36:52.864Z,3.19
2023-02-22T19:41:56.614Z,3.17
2023-02-22T19:44:25.706Z,3.16
2023-02-22T19:46:55.804Z,3.19
2023-02-22T19:51:58.532Z,3.17
2023-02-22T19:54:26.920Z,3.21
2023-02-22T19:56:58.192Z,3.23
2023-02-22T19:59:26.923Z,3.27
2023-02-22T20:01:55.438Z,3.25
2023-02-22T20:04:24.480Z,3.28
2023-02-22T20:06:54.746Z,3.32
2023-02-22T20:09:30.102Z,3.33
2023-02-22T20:12:00.216Z,3.31
2023-02-22T20:14:28.743Z,3.27
2023-02-22T20:16:57.585Z,3.27
2023-02-22T20:19:26.907Z,3.27
2023-02-22T20:21:56.581Z,3.25
2023-02-22T20:24:25.474Z,3.21
2023-02-22T20:26:56.618Z,3.19
2023-02-22T20:29:29.844Z,3.14
2023-02-22T20:31:58.570Z,3.14
2023-02-22T20:34:31.324Z,3.13
2023-02-22T20:37:00.090Z,3.12
2023-02-22T20:39:28.219Z,3.10
2023-02-22T20:41:56.556Z,3.11
2023-02-22T20:44:24.777Z,3.12
2023-02-22T20:46:54.383Z,3.09
2023-02-22T20:49:22.562Z,3.06
2023-02-22T20:51:51.036Z,3.02
2023-02-22T20:54:19.538Z,3.02
2023-02-22T20:56:48.339Z,2.97
2023-02-22T20:59:17.401Z,2.96
2023-02-22T21:01:47.536Z,2.96
2023-02-22T21:04:17.280Z,2.94
2023-02-22T21:06:46.909Z,2.91
2023-02-22T21:09:16.997Z,2.90
2023-02-22T21:11:45.929Z,2.87
2023-02-22T21:14:18.791Z,2.87
2023-02-22T21:16:48.084Z,2.84
2023-02-22T21:19:28.372Z,2.76
2023-02-22T21:21:58.147Z,2.78
2023-02-22T21:24:26.849Z,2.78
2023-02-22T21:26:56.134Z,2.77
2023-02-22T21:29:24.861Z,2.77
2023-02-22T21:31:53.340Z,2.77
2023-02-22T21:34:23.658Z,2.73
2023-02-22T21:36:52.661Z,2.70
2023-02-22T21:39:21.501Z,2.64
2023-02-22T21:41:50.980Z,2.64
2023-02-22T21:44:20.035Z,2.64
2023-02-22T21:46:49.949Z,2.63
2023-02-22T21:49:18.673Z,2.63
2023-02-22T21:51:48.633Z,2.65
2023-02-22T21:54:16.948Z,2.66
2023-02-22T21:56:45.704Z,2.67
2023-02-22T21:59:15.236Z,2.72
2023-02-22T22:01:47.347Z,2.65
2023-02-22T22:04:19.018Z,2.65
2023-02-22T22:06:49.997Z,2.65
2023-02-22T22:09:23.617Z,2.63
2023-02-22T22:11:53.583Z,2.63
2023-02-22T22:14:23.218Z,2.55
2023-02-22T22:16:52.612Z,2.53
2023-02-22T22:19:21.122Z,2.49
2023-02-22T22:21:54.066Z,2.47
2023-02-22T22:24:23.464Z,2.46
2023-02-22T22:26:54.913Z,2.43
2023-02-22T22:29:23.852Z,2.40
2023-02-22T22:31:52.673Z,2.43
2023-02-22T22:34:20.868Z,2.39
2023-02-22T22:36:50.333Z,2.34
2023-02-22T22:39:21.173Z,2.33
2023-02-22T22:41:50.189Z,2.33
2023-02-22T22:44:22.513Z,2.31
2023-02-22T22:46:53.892Z,2.30
2023-02-22T22:49:25.532Z,2.30
2023-02-22T22:51:55.352Z,2.23
2023-02-22T22:54:24.106Z,2.22
2023-02-22T22:56:52.632Z,2.19
2023-02-22T22:59:21.814Z,2.15
2023-02-22T23:01:52.144Z,2.14
2023-02-22T23:04:21.754Z,2.10
2023-02-22T23:06:51.201Z,2.07
2023-02-22T23:09:22.900Z,2.06
2023-02-22T23:11:53.486Z,2.00
2023-02-22T23:14:22.354Z,2.02
2023-02-22T23:16:51.189Z,1.99
2023-02-22T23:19:20.077Z,1.97
2023-02-22T23:21:49.662Z,1.98
2023-02-22T23:24:19.233Z,1.98
2023-02-22T23:26:49.819Z,1.95
2023-02-22T23:29:18.562Z,1.92
2023-02-22T23:31:48.723Z,1.92
2023-02-22T23:34:17.440Z,1.84
2023-02-22T23:36:46.901Z,1.87
2023-02-22T23:39:16.365Z,1.84
2023-02-22T23:41:44.635Z,1.86
2023-02-22T23:44:17.881Z,1.85
2023-02-22T23:46:48.698Z,1.75
2023-02-22T23:49:20.815Z,1.74
2023-02-22T23:51:49.415Z,1.72
2023-02-22T23:54:19.343Z,1.70
2023-02-22T23:56:56.718Z,1.72
2023-02-22T23:59:28.259Z,1.71
